Historyczne dane pomiarowe

Dodano dane terminowe – wersja testowa.

Dane z okresu 1951-2019

Wersja bazy: 1.34 [2019-03-16, lista zmian], aktualizacja planowana na 2019-04-15

Dane meteo z obszaru Polski uzyskane na podstawie danych udostępnionych przez Instytut Meteorologii i Gospodarki Wodnej – Państwowy Instytut Badawczy.

 

Wybierz Datę:    

       

TemperaturaWilgotnośćZachmurzenieWiatrCiśnienieWidzialnośćZjawiska
 Data    tng td wb rh cc ccl cl cm ch dir g1 g2 mslp ppp      
1999-06-17 00:00:00 16.8--- 13.8 15.083wxwxwx1wx--1021.4 998.5 0.0---wx
1999-06-17 01:00:00 15.9--- 13.9 14.788wxwxwx2wx--1021.2 998.3----wx
1999-06-17 02:00:00 15.3--- 13.8 14.491wxwxwx2wx--1020.7 997.7----wx
1999-06-17 03:00:00 14.9--- 13.0 13.889wxwxwxwx2wx--1020.6 997.6----wx
1999-06-17 04:00:00 15.3--- 12.8 13.885wxwxwxwx2wx--1020.5 997.5----wx
1999-06-17 05:00:00 15.5--- 11.1 13.075wxwxwx3wx--1020.2 997.2----wx
1999-06-17 06:00:00 15.8--- 12.9 14.183wxwxwxwx2wx--1020.0 997.1 0.0---wx
1999-06-17 07:00:00 17.1--- 13.3 14.878wxwxwx1wx--1019.9 997.1----wx
1999-06-17 08:00:00 18.6--- 14.2 15.976wxwxwxwx2wx--1019.3 996.6----wx
1999-06-17 09:00:00 20.2--- 15.1 17.073wxwxwxwx2wx--1019.1 996.5----wx
1999-06-17 10:00:00 21.0--- 14.2 16.865wxwxwxwx2wx--1018.7 996.2----wx
1999-06-17 11:00:00 21.0--- 13.1 16.261wxwxwxwx1wx--1018.4 995.9----wx
1999-06-17 12:00:00 20.8--- 15.1 17.270wxwxwx1wx--1017.9 995.4 0.0---wx
1999-06-17 13:00:00 20.6--- 14.8 17.070wxwxwx2wx--1017.5 995.0----wx
1999-06-17 14:00:00 20.2--- 15.1 17.073wxwxwx1wx--1017.1 994.6----wx
1999-06-17 15:00:00 20.4--- 15.0 17.071wxwxwxwx1wx--1016.4 993.9----wx
1999-06-17 16:00:00 20.6--- 15.4 17.372wxwxwxwx1wx--1015.7 993.2----wx
1999-06-17 17:00:00 20.8--- 15.2 17.371wxwxwxwx1wx--1015.3 992.9----wx
1999-06-17 18:00:00 20.4--- 15.3 17.273wxwxwxwx1wx--1014.9 992.4 0.0---wx
1999-06-17 19:00:00 19.2--- 15.0 16.677wxwxwxwxwx1wx--1014.8 992.3----wx
1999-06-17 20:00:00 18.3--- 15.1 16.382wxwxwxwx2wx--1014.9 992.3----wx
1999-06-17 21:00:00 17.4--- 15.0 15.986wxwxwx1wx--1014.7 992.0----wx
1999-06-17 22:00:00 17.2--- 14.4 15.584wxwxwx1wx--1014.4 991.7----wx
1999-06-17 23:00:00 16.5--- 14.4 15.287wxwxwx1wx--1013.9 991.2----wx

 

Źródłem pochodzenia danych jest Instytut Meteorologii i Gospodarki Wodnej – Państwowy Instytut Badawczy. Dane Instytutu Meteorologii i Gospodarki Wodnej – Państwowego Instytutu Badawczego zostały przetworzone.

Dane źródłowe można odnaleźć na stronie https://dane.imgw.pl